Time;durP1;ratioP1;P1;durP2;ratioP2;P2;SDS_P1;SDS_P2;PMS_P1;PMS_P2;Temp;Humidity;BMP_temperature;BMP_pressure;BME280_temperature;BME280_humidity;BME280_pressure;Samples;Min_cycle;Max_cycle;Signal;HPM_P1;HPM_P2
2023/12/24 00:01:04;;;;;;;13.40;8.70;;;;;;;;;;5131368;27;20786;-74
2023/12/24 00:03:31;;;;;;;16.33;10.98;;;;;;;;;;5095850;27;20027;-73
2023/12/24 00:05:57;;;;;;;6.88;6.25;;;;;;;;;;5112938;27;20031;-74
2023/12/24 00:08:23;;;;;;;16.67;10.88;;;;;;;;;;5132628;27;20038;-73
2023/12/24 00:10:49;;;;;;;20.67;11.32;;;;;;;;;;5131496;27;20031;-73
2023/12/24 00:13:15;;;;;;;18.55;12.00;;;;;;;;;;5131552;27;20556;-73
2023/12/24 00:15:41;;;;;;;16.42;9.38;;;;;;;;;;5112232;27;20027;-74
2023/12/24 00:18:07;;;;;;;21.25;12.30;;;;;;;;;;5130943;27;20035;-74
2023/12/24 00:20:33;;;;;;;20.38;12.38;;;;;;;;;;5130840;27;20054;-74
2023/12/24 00:23:06;;;;;;;21.48;10.70;;;;;;;;;;5131841;27;20498;-72
2023/12/24 00:25:32;;;;;;;12.75;8.70;;;;;;;;;;5112422;27;20034;-73
2023/12/24 00:27:58;;;;;;;20.35;11.77;;;;;;;;;;5130827;27;20027;-73
2023/12/24 00:30:28;;;;;;;16.00;9.93;;;;;;;;;;5095499;27;20042;-72
2023/12/24 00:32:55;;;;;;;7.68;6.82;;;;;;;;;;5087598;27;20617;-73
2023/12/24 00:35:21;;;;;;;17.50;11.65;;;;;;;;;;5112083;27;20126;-72
2023/12/24 00:37:47;;;;;;;9.57;7.07;;;;;;;;;;5112491;27;20088;-73
2023/12/24 00:40:13;;;;;;;17.65;9.05;;;;;;;;;;5131531;27;20469;-73
2023/12/24 00:42:39;;;;;;;10.40;5.88;;;;;;;;;;5112001;27;20118;-71
2023/12/24 00:45:06;;;;;;;16.38;10.50;;;;;;;;;;5130071;27;20027;-73
2023/12/24 00:47:32;;;;;;;25.13;11.02;;;;;;;;;;5130401;27;20038;-73
2023/12/24 00:49:58;;;;;;;36.50;11.15;;;;;;;;;;5111783;27;20031;-73
2023/12/24 00:52:24;;;;;;;18.42;10.85;;;;;;;;;;5131370;27;20118;-73
2023/12/24 00:54:50;;;;;;;13.05;11.50;;;;;;;;;;5130680;27;20059;-72
2023/12/24 00:57:16;;;;;;;15.75;9.27;;;;;;;;;;5130933;27;20027;-73
2023/12/24 00:59:41;;;;;;;16.25;10.48;;;;;;;;;;5130060;27;20042;-73
2023/12/24 01:02:07;;;;;;;13.55;10.05;;;;;;;;;;5130148;27;20023;-73
2023/12/24 01:04:33;;;;;;;13.13;9.02;;;;;;;;;;5094232;27;20520;-73
2023/12/24 01:07:00;;;;;;;6.07;5.15;;;;;;;;;;5130019;27;20083;-73
2023/12/24 01:09:26;;;;;;;17.25;11.35;;;;;;;;;;5104657;27;20137;-72
2023/12/24 01:11:52;;;;;;;11.35;9.13;;;;;;;;;;5130021;27;20577;-73
2023/12/24 01:14:18;;;;;;;5.63;4.97;;;;;;;;;;5111726;27;20037;-73
2023/12/24 01:16:44;;;;;;;26.10;10.85;;;;;;;;;;5130077;27;20118;-72
2023/12/24 01:19:09;;;;;;;15.48;10.43;;;;;;;;;;5130226;27;20681;-73
2023/12/24 01:21:35;;;;;;;13.82;8.77;;;;;;;;;;5111370;27;20031;-72
2023/12/24 01:24:01;;;;;;;13.68;10.30;;;;;;;;;;5130743;27;20527;-73
2023/12/24 01:26:28;;;;;;;10.85;6.13;;;;;;;;;;5091010;28;20073;-74
2023/12/24 01:28:54;;;;;;;16.42;11.02;;;;;;;;;;5129332;27;20059;-73
2023/12/24 01:31:21;;;;;;;18.25;11.75;;;;;;;;;;5111506;27;20054;-73
2023/12/24 01:33:47;;;;;;;13.15;10.55;;;;;;;;;;5111743;27;20087;-74
2023/12/24 01:36:13;;;;;;;11.15;9.32;;;;;;;;;;5112711;27;20186;-73
2023/12/24 01:38:38;;;;;;;9.43;8.02;;;;;;;;;;5130524;27;20066;-73
2023/12/24 01:41:04;;;;;;;12.82;9.00;;;;;;;;;;5111508;27;20027;-73
2023/12/24 01:43:30;;;;;;;14.07;9.50;;;;;;;;;;5111429;27;20118;-73
2023/12/24 01:45:56;;;;;;;14.05;10.80;;;;;;;;;;5111159;27;20063;-73
2023/12/24 01:48:22;;;;;;;9.00;7.72;;;;;;;;;;5135004;27;20031;-72
2023/12/24 01:50:48;;;;;;;10.07;9.02;;;;;;;;;;5139570;27;20372;-73
2023/12/24 01:53:17;;;;;;;10.40;9.30;;;;;;;;;;5134392;27;20050;-72
2023/12/24 01:55:43;;;;;;;15.48;10.25;;;;;;;;;;5103023;27;20027;-73
2023/12/24 01:58:09;;;;;;;9.75;8.65;;;;;;;;;;5119080;27;20039;-72
2023/12/24 02:00:35;;;;;;;11.70;9.32;;;;;;;;;;5101769;27;20031;-73
2023/12/24 02:03:01;;;;;;;11.65;9.02;;;;;;;;;;5137615;27;20038;-73
2023/12/24 02:05:27;;;;;;;8.50;5.45;;;;;;;;;;5106217;27;20058;-74
2023/12/24 02:07:55;;;;;;;9.25;8.30;;;;;;;;;;5131594;27;20023;-74
2023/12/24 02:10:21;;;;;;;12.55;8.38;;;;;;;;;;5110604;27;20042;-74
2023/12/24 02:12:47;;;;;;;6.05;5.55;;;;;;;;;;5094134;27;20035;-73
2023/12/24 02:15:13;;;;;;;6.15;5.63;;;;;;;;;;5110408;27;20550;-74
2023/12/24 02:17:39;;;;;;;11.07;8.32;;;;;;;;;;5094026;27;20129;-73
2023/12/24 02:20:06;;;;;;;10.57;8.05;;;;;;;;;;5095076;27;20052;-74
2023/12/24 02:22:32;;;;;;;12.07;9.05;;;;;;;;;;5092594;27;20126;-74
2023/12/24 02:24:59;;;;;;;11.10;8.43;;;;;;;;;;5110788;27;20517;-74
2023/12/24 02:27:39;;;;;;;6.45;5.80;;;;;;;;;;5093588;27;20087;-74
2023/12/24 02:30:11;;;;;;;9.52;8.55;;;;;;;;;;5122952;27;20030;-74
2023/12/24 02:32:37;;;;;;;10.45;9.55;;;;;;;;;;5092879;28;20083;-74
2023/12/24 02:35:03;;;;;;;12.77;9.10;;;;;;;;;;5087343;28;20028;-74
2023/12/24 02:37:30;;;;;;;11.43;9.27;;;;;;;;;;5041991;28;20071;-74
2023/12/24 02:39:56;;;;;;;9.23;7.97;;;;;;;;;;5087205;28;20549;-74
2023/12/24 02:42:22;;;;;;;11.27;8.93;;;;;;;;;;5069143;28;20031;-73
2023/12/24 02:44:47;;;;;;;6.72;6.15;;;;;;;;;;5087916;28;20063;-72
2023/12/24 02:47:13;;;;;;;7.93;6.60;;;;;;;;;;5088553;28;20039;-74
2023/12/24 02:49:39;;;;;;;8.00;6.80;;;;;;;;;;5085993;28;20096;-73
2023/12/24 02:52:05;;;;;;;12.60;9.02;;;;;;;;;;5087095;28;20068;-73
2023/12/24 02:54:33;;;;;;;11.57;9.60;;;;;;;;;;5085748;28;20039;-73
2023/12/24 02:56:58;;;;;;;11.07;9.10;;;;;;;;;;5087032;28;20548;-72
2023/12/24 02:59:26;;;;;;;15.23;8.30;;;;;;;;;;5088088;28;20058;-74
2023/12/24 03:01:52;;;;;;;14.75;8.98;;;;;;;;;;5086749;28;20032;-73
2023/12/24 03:04:18;;;;;;;5.82;5.38;;;;;;;;;;5069167;28;20517;-72
2023/12/24 03:06:44;;;;;;;13.70;9.50;;;;;;;;;;5086096;28;20040;-74
2023/12/24 03:09:10;;;;;;;15.48;9.68;;;;;;;;;;5085406;28;20547;-73
2023/12/24 03:11:36;;;;;;;12.90;9.60;;;;;;;;;;5085730;28;20109;-74
2023/12/24 03:14:03;;;;;;;16.13;10.90;;;;;;;;;;5087089;28;20083;-74
2023/12/24 03:16:29;;;;;;;16.00;11.40;;;;;;;;;;5085935;28;20028;-73
2023/12/24 03:18:55;;;;;;;12.02;10.70;;;;;;;;;;5085680;28;20032;-74
2023/12/24 03:21:21;;;;;;;12.70;10.43;;;;;;;;;;5085942;28;20110;-74
2023/12/24 03:23:47;;;;;;;12.07;10.18;;;;;;;;;;5085960;28;20088;-73
2023/12/24 03:26:22;;;;;;;17.85;11.07;;;;;;;;;;5086590;28;20024;-74
2023/12/24 03:28:48;;;;;;;16.98;11.38;;;;;;;;;;5085947;28;20909;-73
2023/12/24 03:31:14;;;;;;;13.23;11.30;;;;;;;;;;5095717;28;20055;-73
2023/12/24 03:33:40;;;;;;;13.15;10.60;;;;;;;;;;5127650;27;20114;-72
2023/12/24 03:36:07;;;;;;;14.73;9.80;;;;;;;;;;5127268;27;20557;-75
2023/12/24 03:38:33;;;;;;;14.38;10.95;;;;;;;;;;5127404;27;20035;-74
2023/12/24 03:40:59;;;;;;;13.18;10.07;;;;;;;;;;5110173;27;20035;-73
2023/12/24 03:43:25;;;;;;;12.63;10.65;;;;;;;;;;5127277;27;20043;-74
2023/12/24 03:45:51;;;;;;;13.45;10.45;;;;;;;;;;5128095;27;20414;-74
2023/12/24 03:48:16;;;;;;;14.85;9.90;;;;;;;;;;5108900;27;20069;-74
2023/12/24 03:50:43;;;;;;;9.60;8.20;;;;;;;;;;5127542;27;20096;-75
2023/12/24 03:53:09;;;;;;;11.10;9.98;;;;;;;;;;5128552;27;20666;-74
2023/12/24 03:55:34;;;;;;;11.63;9.98;;;;;;;;;;5092099;27;20031;-74
2023/12/24 03:58:00;;;;;;;12.98;9.27;;;;;;;;;;5108777;27;20031;-74
2023/12/24 04:00:26;;;;;;;15.75;9.55;;;;;;;;;;5127136;27;20035;-73
2023/12/24 04:02:55;;;;;;;12.82;9.68;;;;;;;;;;5109023;27;20513;-73
2023/12/24 04:05:21;;;;;;;10.90;9.00;;;;;;;;;;5128905;27;20042;-73
2023/12/24 04:07:47;;;;;;;12.52;9.23;;;;;;;;;;5109306;27;20497;-74
2023/12/24 04:10:13;;;;;;;11.52;10.32;;;;;;;;;;5092311;27;20027;-75
2023/12/24 04:12:40;;;;;;;9.52;8.63;;;;;;;;;;5108896;27;20112;-74
2023/12/24 04:15:07;;;;;;;13.88;10.30;;;;;;;;;;5108822;27;20513;-74
2023/12/24 04:17:35;;;;;;;7.15;6.38;;;;;;;;;;5127366;27;20035;-73
2023/12/24 04:20:02;;;;;;;8.63;7.90;;;;;;;;;;5128426;27;20080;-74
2023/12/24 04:22:31;;;;;;;12.75;8.85;;;;;;;;;;5109302;27;20434;-73
2023/12/24 04:24:59;;;;;;;8.43;7.40;;;;;;;;;;5101580;27;20030;-73
2023/12/24 04:27:26;;;;;;;9.30;8.40;;;;;;;;;;5108746;28;20060;-73
2023/12/24 04:29:52;;;;;;;10.77;9.75;;;;;;;;;;5128342;27;20032;-74
2023/12/24 04:32:20;;;;;;;13.48;9.73;;;;;;;;;;5091085;28;20074;-73
2023/12/24 04:34:46;;;;;;;8.75;7.78;;;;;;;;;;5085198;28;20041;-73
2023/12/24 04:37:13;;;;;;;7.57;6.80;;;;;;;;;;5085611;28;20038;-73
2023/12/24 04:39:39;;;;;;;8.30;6.65;;;;;;;;;;5084010;28;20024;-72
2023/12/24 04:42:05;;;;;;;10.70;8.90;;;;;;;;;;5070567;28;20047;-74
2023/12/24 04:44:31;;;;;;;11.43;9.75;;;;;;;;;;5100056;28;20035;-76
2023/12/24 04:46:56;;;;;;;6.75;6.03;;;;;;;;;;5098411;28;20032;-74
2023/12/24 04:49:23;;;;;;;5.65;5.10;;;;;;;;;;5072599;28;20024;-74
2023/12/24 04:51:48;;;;;;;15.68;10.75;;;;;;;;;;5088834;28;20063;-74
2023/12/24 04:54:14;;;;;;;7.78;7.07;;;;;;;;;;5088718;28;20588;-74
2023/12/24 04:56:41;;;;;;;16.27;10.50;;;;;;;;;;5056293;28;20032;-74
2023/12/24 04:59:06;;;;;;;8.60;7.55;;;;;;;;;;5088431;28;20028;-75
2023/12/24 05:01:33;;;;;;;17.40;11.77;;;;;;;;;;5088156;28;20044;-74
2023/12/24 05:03:58;;;;;;;13.10;9.35;;;;;;;;;;5091524;28;20100;-74
2023/12/24 05:06:27;;;;;;;15.73;11.45;;;;;;;;;;5089338;28;20078;-74
2023/12/24 05:08:53;;;;;;;13.70;10.80;;;;;;;;;;5090745;28;20115;-75
2023/12/24 05:11:18;;;;;;;17.77;10.68;;;;;;;;;;5087519;28;20123;-74
2023/12/24 05:13:44;;;;;;;8.48;7.50;;;;;;;;;;5078070;28;20048;-74
2023/12/24 05:16:10;;;;;;;13.10;10.68;;;;;;;;;;5068922;28;20043;-75
2023/12/24 05:18:36;;;;;;;10.93;9.85;;;;;;;;;;5080065;28;20388;-74
2023/12/24 05:21:02;;;;;;;7.00;6.30;;;;;;;;;;5089143;28;20028;-76
2023/12/24 05:23:28;;;;;;;7.25;6.65;;;;;;;;;;5089266;28;20036;-74
2023/12/24 05:25:54;;;;;;;14.18;11.15;;;;;;;;;;5089528;28;20094;-74
2023/12/24 05:28:20;;;;;;;13.00;11.32;;;;;;;;;;5089126;28;20483;-73
2023/12/24 05:30:45;;;;;;;9.52;7.25;;;;;;;;;;5090570;27;20047;-74
2023/12/24 05:33:11;;;;;;;17.60;11.27;;;;;;;;;;5131014;27;20077;-74
2023/12/24 05:35:37;;;;;;;16.67;10.30;;;;;;;;;;5112942;27;20023;-74
2023/12/24 05:38:03;;;;;;;13.13;11.13;;;;;;;;;;5131241;27;20034;-74
2023/12/24 05:40:30;;;;;;;19.65;11.18;;;;;;;;;;5130817;27;20031;-72
2023/12/24 05:42:56;;;;;;;16.77;12.85;;;;;;;;;;5126208;27;20035;-68
2023/12/24 05:45:22;;;;;;;11.82;9.75;;;;;;;;;;5130639;27;20558;-68
2023/12/24 05:47:48;;;;;;;10.02;7.95;;;;;;;;;;5130903;27;20129;-68
2023/12/24 05:50:13;;;;;;;12.57;10.93;;;;;;;;;;5128082;27;20494;-68
2023/12/24 05:52:41;;;;;;;13.57;11.57;;;;;;;;;;5129553;27;20042;-67
2023/12/24 05:55:07;;;;;;;13.07;11.57;;;;;;;;;;5128704;27;20123;-69
2023/12/24 05:57:34;;;;;;;11.77;9.55;;;;;;;;;;5128773;27;20110;-68
2023/12/24 05:59:59;;;;;;;24.40;12.45;;;;;;;;;;5129079;27;20023;-68
2023/12/24 06:02:25;;;;;;;15.27;9.65;;;;;;;;;;5126080;27;20217;-69
2023/12/24 06:04:51;;;;;;;17.30;12.63;;;;;;;;;;5110256;27;20027;-70
2023/12/24 06:07:17;;;;;;;15.82;10.82;;;;;;;;;;5124417;27;20110;-69
2023/12/24 06:09:43;;;;;;;14.15;10.68;;;;;;;;;;5110104;27;20053;-68
2023/12/24 06:12:09;;;;;;;24.73;14.77;;;;;;;;;;5129550;27;20089;-68
2023/12/24 06:14:35;;;;;;;12.55;10.98;;;;;;;;;;5129858;27;20039;-67
2023/12/24 06:17:01;;;;;;;11.77;9.05;;;;;;;;;;5129514;27;20118;-67
2023/12/24 06:19:27;;;;;;;14.23;11.20;;;;;;;;;;5129251;27;20122;-68
2023/12/24 06:21:52;;;;;;;15.05;11.23;;;;;;;;;;5129143;27;20039;-67
2023/12/24 06:24:20;;;;;;;12.65;9.82;;;;;;;;;;5110080;27;20059;-68
2023/12/24 06:26:47;;;;;;;12.52;9.48;;;;;;;;;;5129229;27;20114;-70
2023/12/24 06:29:13;;;;;;;13.13;8.25;;;;;;;;;;5129497;27;20031;-69
2023/12/24 06:31:39;;;;;;;8.55;7.68;;;;;;;;;;5110432;27;20061;-69
2023/12/24 06:34:05;;;;;;;11.38;9.00;;;;;;;;;;5129562;27;20035;-69
2023/12/24 06:36:31;;;;;;;15.70;10.18;;;;;;;;;;5110516;27;20179;-67
2023/12/24 06:38:57;;;;;;;16.23;11.02;;;;;;;;;;5111503;27;20164;-68
2023/12/24 06:41:23;;;;;;;15.63;10.18;;;;;;;;;;5089558;28;20038;-67
2023/12/24 06:43:49;;;;;;;10.15;8.95;;;;;;;;;;5108937;28;20049;-67
2023/12/24 06:46:15;;;;;;;8.88;6.82;;;;;;;;;;5090426;28;20031;-68
2023/12/24 06:48:41;;;;;;;8.85;8.00;;;;;;;;;;5114996;27;20039;-67
2023/12/24 06:51:07;;;;;;;8.70;7.88;;;;;;;;;;5128902;27;20031;-68
2023/12/24 06:53:33;;;;;;;7.43;6.65;;;;;;;;;;5119303;27;20130;-67
2023/12/24 06:56:01;;;;;;;16.65;9.18;;;;;;;;;;5093920;27;20106;-67
2023/12/24 06:58:27;;;;;;;11.57;10.15;;;;;;;;;;5109821;27;20470;-68
2023/12/24 07:00:53;;;;;;;13.18;9.80;;;;;;;;;;5127429;27;20015;-70
2023/12/24 07:03:19;;;;;;;8.93;7.30;;;;;;;;;;5110232;27;20126;-68
2023/12/24 07:05:45;;;;;;;13.48;10.02;;;;;;;;;;5128737;27;20050;-70
2023/12/24 07:08:14;;;;;;;8.18;7.38;;;;;;;;;;5109462;27;20096;-68
2023/12/24 07:10:40;;;;;;;9.77;8.88;;;;;;;;;;5110297;27;20088;-68
2023/12/24 07:13:05;;;;;;;8.00;7.22;;;;;;;;;;5128424;27;20042;-68
2023/12/24 07:15:31;;;;;;;9.95;8.63;;;;;;;;;;5108957;27;20039;-68
2023/12/24 07:17:57;;;;;;;10.73;9.18;;;;;;;;;;5109958;27;20035;-67
2023/12/24 07:20:23;;;;;;;7.45;6.60;;;;;;;;;;5128159;27;20023;-67
2023/12/24 07:22:49;;;;;;;8.40;7.60;;;;;;;;;;5092863;28;20039;-66
2023/12/24 07:25:15;;;;;;;14.68;9.85;;;;;;;;;;5109636;28;20026;-68
2023/12/24 07:27:43;;;;;;;9.25;8.32;;;;;;;;;;5127844;27;20046;-67
2023/12/24 07:30:09;;;;;;;11.98;10.85;;;;;;;;;;5110146;28;20122;-68
2023/12/24 07:32:35;;;;;;;10.23;7.45;;;;;;;;;;5092426;28;20192;-68
2023/12/24 07:35:01;;;;;;;8.68;7.88;;;;;;;;;;5128486;28;20543;-67
2023/12/24 07:37:26;;;;;;;5.80;5.32;;;;;;;;;;5109581;28;20039;-67
2023/12/24 07:39:52;;;;;;;9.23;7.57;;;;;;;;;;5128169;28;20064;-68
2023/12/24 07:42:19;;;;;;;13.48;9.20;;;;;;;;;;5127946;28;20035;-67
2023/12/24 07:44:47;;;;;;;6.72;6.05;;;;;;;;;;5109730;28;20031;-68
2023/12/24 07:47:13;;;;;;;10.90;8.10;;;;;;;;;;5128129;28;20483;-68
2023/12/24 07:49:41;;;;;;;11.65;10.30;;;;;;;;;;5105357;28;20026;-67
2023/12/24 07:52:07;;;;;;;7.75;7.00;;;;;;;;;;5127644;27;20039;-68
2023/12/24 07:54:33;;;;;;;15.32;9.27;;;;;;;;;;5109357;28;20039;-67
2023/12/24 07:56:59;;;;;;;14.15;9.73;;;;;;;;;;5109564;28;20035;-68
2023/12/24 07:59:24;;;;;;;10.15;6.88;;;;;;;;;;5127990;28;20064;-67
2023/12/24 08:01:50;;;;;;;8.75;7.85;;;;;;;;;;5126144;27;20041;-68
2023/12/24 08:04:16;;;;;;;12.50;9.40;;;;;;;;;;5126022;27;20432;-68
2023/12/24 08:06:42;;;;;;;7.63;6.80;;;;;;;;;;5125238;27;20031;-68
2023/12/24 08:09:10;;;;;;;7.45;6.75;;;;;;;;;;5126419;27;20037;-67
2023/12/24 08:11:37;;;;;;;7.72;6.97;;;;;;;;;;5103455;28;20027;-67
2023/12/24 08:14:02;;;;;;;9.65;7.60;;;;;;;;;;5070622;28;20449;-67
2023/12/24 08:16:32;;;;;;;9.65;7.85;;;;;;;;;;5106161;28;20039;-67
2023/12/24 08:18:58;;;;;;;7.30;6.60;;;;;;;;;;5089786;28;20089;-68
2023/12/24 08:21:24;;;;;;;8.30;7.50;;;;;;;;;;5111283;27;20038;-67
2023/12/24 08:23:50;;;;;;;5.82;5.25;;;;;;;;;;5132291;27;20039;-68
2023/12/24 08:26:18;;;;;;;7.13;6.43;;;;;;;;;;5132046;27;20047;-68
2023/12/24 08:28:44;;;;;;;8.48;7.25;;;;;;;;;;5112819;27;20028;-67
2023/12/24 08:31:10;;;;;;;8.05;7.15;;;;;;;;;;5113557;27;20138;-69
2023/12/24 08:33:37;;;;;;;7.60;6.88;;;;;;;;;;5113350;27;20049;-68
2023/12/24 08:36:03;;;;;;;6.22;5.63;;;;;;;;;;5131953;27;20027;-69
2023/12/24 08:38:29;;;;;;;7.60;6.90;;;;;;;;;;5131806;27;20114;-68
2023/12/24 08:40:55;;;;;;;6.50;5.90;;;;;;;;;;5113913;27;20027;-68
2023/12/24 08:43:21;;;;;;;8.50;5.93;;;;;;;;;;5132188;27;20095;-67
2023/12/24 08:45:47;;;;;;;4.20;3.90;;;;;;;;;;5129824;27;20398;-68
2023/12/24 08:48:13;;;;;;;5.50;5.10;;;;;;;;;;5127291;27;20042;-68
2023/12/24 08:50:39;;;;;;;5.90;5.45;;;;;;;;;;5118218;27;20023;-68
2023/12/24 08:53:05;;;;;;;7.07;6.38;;;;;;;;;;5128658;27;20042;-68
2023/12/24 08:55:31;;;;;;;9.40;7.30;;;;;;;;;;5130199;27;20080;-68
2023/12/24 08:57:58;;;;;;;7.00;5.65;;;;;;;;;;5129285;27;20841;-67
2023/12/24 09:00:24;;;;;;;7.28;6.60;;;;;;;;;;5130324;27;20514;-67
2023/12/24 09:02:50;;;;;;;7.43;5.75;;;;;;;;;;5119213;27;20042;-66
2023/12/24 09:05:18;;;;;;;4.03;3.67;;;;;;;;;;5117505;27;20031;-68
2023/12/24 09:07:44;;;;;;;7.63;6.80;;;;;;;;;;5129166;27;20572;-68
2023/12/24 09:10:10;;;;;;;4.25;3.92;;;;;;;;;;5130668;27;20498;-68
2023/12/24 09:12:36;;;;;;;5.50;4.63;;;;;;;;;;5101424;27;20042;-68
2023/12/24 09:15:02;;;;;;;6.97;6.13;;;;;;;;;;5129663;27;20149;-68
2023/12/24 09:17:32;;;;;;;5.88;5.38;;;;;;;;;;5126027;27;20059;-68
2023/12/24 09:19:58;;;;;;;7.65;7.15;;;;;;;;;;5104912;27;20746;-68
2023/12/24 09:22:24;;;;;;;7.13;6.53;;;;;;;;;;5107267;27;20076;-68
2023/12/24 09:24:50;;;;;;;6.93;6.28;;;;;;;;;;5109192;27;20031;-68
2023/12/24 09:27:16;;;;;;;6.07;5.45;;;;;;;;;;5111776;27;20084;-69
2023/12/24 09:29:42;;;;;;;6.97;6.47;;;;;;;;;;5096874;27;20641;-70
2023/12/24 09:32:08;;;;;;;6.82;6.13;;;;;;;;;;5128487;27;20074;-68
2023/12/24 09:34:33;;;;;;;6.70;5.82;;;;;;;;;;5112204;27;20086;-67
2023/12/24 09:36:59;;;;;;;4.28;3.97;;;;;;;;;;5126677;27;20046;-68
2023/12/24 09:39:25;;;;;;;5.75;5.00;;;;;;;;;;5125398;27;20087;-68
2023/12/24 09:41:51;;;;;;;4.60;4.20;;;;;;;;;;5099566;27;20051;-68
2023/12/24 09:44:17;;;;;;;6.55;5.95;;;;;;;;;;5117141;27;20031;-69
2023/12/24 09:46:42;;;;;;;6.20;5.60;;;;;;;;;;5124353;27;20023;-68
2023/12/24 09:49:08;;;;;;;5.35;4.90;;;;;;;;;;5112374;27;20031;-67
2023/12/24 09:51:35;;;;;;;5.90;5.40;;;;;;;;;;5125718;27;20035;-68
2023/12/24 09:54:00;;;;;;;5.22;4.72;;;;;;;;;;5128596;27;20031;-68
2023/12/24 09:56:26;;;;;;;5.13;4.80;;;;;;;;;;5111575;27;20034;-69
2023/12/24 09:58:52;;;;;;;6.55;5.93;;;;;;;;;;5130007;27;20035;-70
2023/12/24 10:01:19;;;;;;;5.57;5.18;;;;;;;;;;5098185;27;20027;-68
2023/12/24 10:03:45;;;;;;;5.57;4.53;;;;;;;;;;5128360;27;20507;-68
2023/12/24 10:06:11;;;;;;;4.57;4.28;;;;;;;;;;5077489;27;20029;-68
2023/12/24 10:08:37;;;;;;;3.28;3.08;;;;;;;;;;5129471;27;20491;-68
2023/12/24 10:11:13;;;;;;;5.50;5.00;;;;;;;;;;5130409;27;20038;-69
2023/12/24 10:13:39;;;;;;;7.18;4.68;;;;;;;;;;5129737;27;20043;-69
2023/12/24 10:16:05;;;;;;;7.25;6.55;;;;;;;;;;5129573;27;20515;-69
2023/12/24 10:18:31;;;;;;;5.53;5.10;;;;;;;;;;5128522;27;20112;-70
2023/12/24 10:21:04;;;;;;;6.72;6.03;;;;;;;;;;5128632;27;20023;-69
2023/12/24 10:23:31;;;;;;;8.77;6.45;;;;;;;;;;5112678;27;20498;-69
2023/12/24 10:26:00;;;;;;;6.65;5.93;;;;;;;;;;5094994;27;20065;-69
2023/12/24 10:28:26;;;;;;;8.77;8.02;;;;;;;;;;5126774;27;20043;-70
2023/12/24 10:30:52;;;;;;;6.75;6.15;;;;;;;;;;5119159;27;20023;-69
2023/12/24 10:33:19;;;;;;;6.47;5.47;;;;;;;;;;5119092;27;20050;-69
2023/12/24 10:35:46;;;;;;;6.53;6.00;;;;;;;;;;5118537;27;20123;-69
2023/12/24 10:38:15;;;;;;;4.88;4.47;;;;;;;;;;5115797;27;20027;-70
2023/12/24 10:40:41;;;;;;;4.90;4.57;;;;;;;;;;5111010;27;20110;-70
2023/12/24 10:43:07;;;;;;;6.03;5.57;;;;;;;;;;5110056;27;20038;-69
2023/12/24 10:45:34;;;;;;;7.50;5.80;;;;;;;;;;5094071;27;20035;-68
2023/12/24 10:48:00;;;;;;;5.80;5.30;;;;;;;;;;5111085;27;20095;-69
2023/12/24 10:50:26;;;;;;;6.03;5.50;;;;;;;;;;5111222;27;20084;-69
2023/12/24 10:52:52;;;;;;;5.03;4.60;;;;;;;;;;5108961;27;20047;-71
2023/12/24 10:55:18;;;;;;;5.95;4.63;;;;;;;;;;5125058;27;20027;-69
2023/12/24 10:57:47;;;;;;;4.00;3.80;;;;;;;;;;5125662;27;20499;-70
2023/12/24 11:00:14;;;;;;;4.97;4.57;;;;;;;;;;5115788;27;20159;-69
2023/12/24 11:02:43;;;;;;;6.10;4.88;;;;;;;;;;5106640;27;20039;-67
2023/12/24 11:05:09;;;;;;;4.60;4.30;;;;;;;;;;5128933;27;20582;-68
2023/12/24 11:07:38;;;;;;;4.47;4.18;;;;;;;;;;5092059;27;20724;-68
2023/12/24 11:10:05;;;;;;;6.32;5.82;;;;;;;;;;5129265;27;20027;-68
2023/12/24 11:12:34;;;;;;;5.15;4.75;;;;;;;;;;5124709;27;20043;-70
2023/12/24 11:15:00;;;;;;;4.70;4.13;;;;;;;;;;5110638;27;20379;-69
2023/12/24 11:17:36;;;;;;;5.32;4.93;;;;;;;;;;5128329;27;20153;-68
2023/12/24 11:20:20;;;;;;;6.25;5.65;;;;;;;;;;5121140;27;20044;-69
2023/12/24 11:23:02;;;;;;;5.93;5.43;;;;;;;;;;5107334;27;20043;-69
2023/12/24 11:25:37;;;;;;;6.18;5.35;;;;;;;;;;5096700;27;20027;-69
2023/12/24 11:28:03;;;;;;;6.45;5.88;;;;;;;;;;5118064;27;20031;-69
2023/12/24 11:30:30;;;;;;;6.82;6.13;;;;;;;;;;5127906;27;20031;-69
2023/12/24 11:32:56;;;;;;;6.60;6.10;;;;;;;;;;5115363;27;20055;-69
2023/12/24 11:35:49;;;;;;;6.20;4.63;;;;;;;;;;5126910;27;20035;-68
2023/12/24 11:38:33;;;;;;;5.47;4.97;;;;;;;;;;5128624;27;20111;-68
2023/12/24 11:41:16;;;;;;;5.78;5.28;;;;;;;;;;5128633;27;20138;-68
2023/12/24 11:43:55;;;;;;;5.30;4.90;;;;;;;;;;5119650;27;20042;-69
2023/12/24 11:46:21;;;;;;;5.15;4.32;;;;;;;;;;5107890;28;20407;-68
2023/12/24 11:48:47;;;;;;;6.57;5.97;;;;;;;;;;5083935;28;20039;-68
2023/12/24 11:51:13;;;;;;;6.53;5.85;;;;;;;;;;5107944;28;20118;-68
2023/12/24 11:53:40;;;;;;;5.85;5.43;;;;;;;;;;5107896;28;20039;-68
2023/12/24 11:56:16;;;;;;;4.88;4.47;;;;;;;;;;5110361;28;20058;-69
2023/12/24 11:58:48;;;;;;;4.55;4.15;;;;;;;;;;5111974;27;20040;-67
2023/12/24 12:01:19;;;;;;;7.40;5.45;;;;;;;;;;5110884;28;20083;-72
2023/12/24 12:03:45;;;;;;;6.78;6.10;;;;;;;;;;5089192;28;20087;-68
2023/12/24 12:06:11;;;;;;;5.38;4.90;;;;;;;;;;5093577;28;20167;-68
2023/12/24 12:08:37;;;;;;;5.68;5.18;;;;;;;;;;5111886;27;20057;-69
2023/12/24 12:11:06;;;;;;;6.78;6.18;;;;;;;;;;5127710;27;20032;-69
2023/12/24 12:13:35;;;;;;;8.70;6.57;;;;;;;;;;5111577;27;20053;-69
2023/12/24 12:16:01;;;;;;;7.80;6.53;;;;;;;;;;5129397;27;20023;-69
2023/12/24 12:18:27;;;;;;;8.82;7.45;;;;;;;;;;5095353;27;20084;-69
2023/12/24 12:20:53;;;;;;;6.97;6.28;;;;;;;;;;5093018;28;20027;-69
2023/12/24 12:23:19;;;;;;;8.32;7.47;;;;;;;;;;5104374;27;20028;-68
2023/12/24 12:25:45;;;;;;;9.00;6.57;;;;;;;;;;5131938;27;20410;-71
2023/12/24 12:28:11;;;;;;;6.80;5.45;;;;;;;;;;5131431;27;20499;-67
2023/12/24 12:30:37;;;;;;;6.63;6.03;;;;;;;;;;5113596;27;20057;-68
2023/12/24 12:33:03;;;;;;;4.95;4.55;;;;;;;;;;5087518;27;20533;-69
2023/12/24 12:35:29;;;;;;;6.90;6.30;;;;;;;;;;5131802;27;20097;-69
2023/12/24 12:37:58;;;;;;;6.45;5.75;;;;;;;;;;5096255;27;20133;-69
2023/12/24 12:40:24;;;;;;;6.63;6.03;;;;;;;;;;5130225;27;20051;-70
2023/12/24 12:42:50;;;;;;;7.32;6.63;;;;;;;;;;5131344;27;20035;-69
2023/12/24 12:45:16;;;;;;;7.55;6.25;;;;;;;;;;5112967;27;20027;-69
2023/12/24 12:47:45;;;;;;;5.10;4.53;;;;;;;;;;5131268;27;20027;-69
2023/12/24 12:50:12;;;;;;;7.00;6.32;;;;;;;;;;5113842;27;20056;-68
2023/12/24 12:52:38;;;;;;;7.78;6.65;;;;;;;;;;5092715;28;20054;-69
2023/12/24 12:55:04;;;;;;;6.95;5.85;;;;;;;;;;5111695;28;20035;-68
2023/12/24 12:57:33;;;;;;;5.35;4.80;;;;;;;;;;5129801;27;20510;-67
2023/12/24 13:00:00;;;;;;;7.45;6.13;;;;;;;;;;5112657;27;20520;-67
2023/12/24 13:02:30;;;;;;;6.22;5.72;;;;;;;;;;5130984;27;20118;-67
2023/12/24 13:04:56;;;;;;;6.78;6.18;;;;;;;;;;5131053;27;20506;-67
2023/12/24 13:07:28;;;;;;;9.50;6.18;;;;;;;;;;5130327;27;20046;-67
2023/12/24 13:09:54;;;;;;;6.57;5.90;;;;;;;;;;5131033;27;20070;-67
2023/12/24 13:12:20;;;;;;;7.57;5.82;;;;;;;;;;5131253;27;20099;-67
2023/12/24 13:14:51;;;;;;;6.63;5.97;;;;;;;;;;5118032;27;20036;-68
2023/12/24 13:17:20;;;;;;;6.55;5.70;;;;;;;;;;5110638;28;20515;-69
2023/12/24 13:19:51;;;;;;;6.93;6.22;;;;;;;;;;5122434;27;20096;-68
2023/12/24 13:22:18;;;;;;;10.52;5.75;;;;;;;;;;5126554;27;20038;-67
2023/12/24 13:24:44;;;;;;;6.38;5.32;;;;;;;;;;5107689;27;20035;-68
2023/12/24 13:27:09;;;;;;;5.63;5.13;;;;;;;;;;5112353;27;20039;-68
2023/12/24 13:29:35;;;;;;;6.40;5.35;;;;;;;;;;5128089;27;20035;-68
2023/12/24 13:32:01;;;;;;;6.40;5.35;;;;;;;;;;5111613;27;20554;-67
2023/12/24 13:34:27;;;;;;;5.40;4.93;;;;;;;;;;5122063;27;20028;-67
2023/12/24 13:36:53;;;;;;;6.90;5.90;;;;;;;;;;5092134;28;20035;-67
2023/12/24 13:39:19;;;;;;;8.35;5.20;;;;;;;;;;5121280;27;20084;-67
2023/12/24 13:41:45;;;;;;;6.57;5.68;;;;;;;;;;5130551;27;20031;-67
2023/12/24 13:44:11;;;;;;;6.28;5.60;;;;;;;;;;5124463;27;20126;-67
2023/12/24 13:46:37;;;;;;;6.07;4.95;;;;;;;;;;5109821;28;20034;-67
2023/12/24 13:49:07;;;;;;;7.15;5.28;;;;;;;;;;5107724;28;20209;-68
2023/12/24 13:51:33;;;;;;;6.20;5.60;;;;;;;;;;5092172;28;20040;-71
2023/12/24 13:53:59;;;;;;;5.55;5.05;;;;;;;;;;5128186;27;20300;-69
2023/12/24 13:56:25;;;;;;;6.57;4.60;;;;;;;;;;5111983;27;20041;-69
2023/12/24 13:58:54;;;;;;;6.72;6.13;;;;;;;;;;5126880;27;20053;-68
2023/12/24 14:01:20;;;;;;;5.70;5.20;;;;;;;;;;5111986;27;20023;-68
2023/12/24 14:03:46;;;;;;;5.70;5.05;;;;;;;;;;5128448;27;20465;-68
2023/12/24 14:06:12;;;;;;;6.75;4.50;;;;;;;;;;5093603;27;20042;-68
2023/12/24 14:08:38;;;;;;;6.30;5.70;;;;;;;;;;5076367;27;20038;-69
2023/12/24 14:11:05;;;;;;;7.00;6.32;;;;;;;;;;5125644;27;20050;-68
2023/12/24 14:13:31;;;;;;;8.35;7.03;;;;;;;;;;5109920;27;20528;-68
2023/12/24 14:15:57;;;;;;;10.13;9.13;;;;;;;;;;5128420;27;20027;-68
2023/12/24 14:18:23;;;;;;;10.48;8.95;;;;;;;;;;5128321;27;20039;-68
2023/12/24 14:20:49;;;;;;;10.57;7.53;;;;;;;;;;5121870;27;20582;-69
2023/12/24 14:23:15;;;;;;;6.47;5.97;;;;;;;;;;5129120;27;20087;-68
2023/12/24 14:25:42;;;;;;;7.95;6.18;;;;;;;;;;5109431;27;20035;-68
2023/12/24 14:28:10;;;;;;;5.90;5.40;;;;;;;;;;5107111;27;20019;-68
2023/12/24 14:30:36;;;;;;;5.63;5.20;;;;;;;;;;5123474;27;20556;-68
2023/12/24 14:33:02;;;;;;;5.55;4.78;;;;;;;;;;5127165;27;20127;-68